Time;durP1;ratioP1;P1;durP2;ratioP2;P2;SDS_P1;SDS_P2;PMS_P1;PMS_P2;Temp;Humidity;BMP_temperature;BMP_pressure;BME280_temperature;BME280_humidity;BME280_pressure;Samples;Min_cycle;Max_cycle;Signal;HPM_P1;HPM_P2
2022/12/28 00:00:48;;;;;;;;;;;;;;;15.72;58.21;101411.21;2245557;78;50990;-73
2022/12/28 00:03:50;;;;;;;;;;;;;;;15.72;58.17;101404.08;2267023;78;51450;-72
2022/12/28 00:06:52;;;;;;;;;;;;;;;15.73;58.15;101403.58;2267483;78;51436;-72
2022/12/28 00:09:53;;;;;;;;;;;;;;;15.73;58.15;101412.41;2269034;78;51459;-73
2022/12/28 00:12:55;;;;;;;;;;;;;;;15.74;58.11;101407.41;2245575;78;52418;-73
2022/12/28 00:15:57;;;;;;;;;;;;;;;15.76;58.07;101410.78;2270728;78;51441;-74
2022/12/28 00:18:59;;;;;;;;;;;;;;;15.76;58.07;101402.78;2268887;78;50421;-73
2022/12/28 00:22:00;;;;;;;;;;;;;;;15.76;58.07;101397.45;2269177;78;50787;-73
2022/12/28 00:25:02;;;;;;;;;;;;;;;15.79;58.00;101401.14;2270926;77;50970;-72
2022/12/28 00:28:04;;;;;;;;;;;;;;;15.79;58.00;101397.14;2270551;78;51460;-73
2022/12/28 00:31:05;;;;;;;;;;;;;;;15.80;57.94;101393.51;2269168;78;50217;-73
2022/12/28 00:34:07;;;;;;;;;;;;;;;15.82;57.92;101378.66;2262926;78;50390;-75
2022/12/28 00:37:08;;;;;;;;;;;;;;;15.83;57.86;101377.20;2245753;78;50092;-73
2022/12/28 00:40:10;;;;;;;;;;;;;;;15.82;57.89;101374.16;2270709;77;50684;-74
2022/12/28 00:43:12;;;;;;;;;;;;;;;15.83;57.88;101374.53;2270773;78;50335;-75
2022/12/28 00:46:13;;;;;;;;;;;;;;;15.83;57.90;101380.37;2270534;78;50649;-72
2022/12/28 00:49:15;;;;;;;;;;;;;;;15.86;57.83;101392.91;2245563;78;49707;-73
2022/12/28 00:52:16;;;;;;;;;;;;;;;15.87;57.79;101380.40;2270722;78;50715;-74
2022/12/28 00:55:18;;;;;;;;;;;;;;;15.90;57.73;101372.09;2268983;77;50633;-73
2022/12/28 00:58:20;;;;;;;;;;;;;;;15.89;57.76;101364.59;2268910;78;50277;-72
2022/12/28 01:01:21;;;;;;;;;;;;;;;15.88;57.78;101369.59;2245719;78;50077;-73
2022/12/28 01:04:23;;;;;;;;;;;;;;;15.92;57.70;101366.13;2258409;78;50043;-74
2022/12/28 01:07:24;;;;;;;;;;;;;;;15.93;57.69;101364.28;2237440;78;50373;-72
2022/12/28 01:10:26;;;;;;;;;;;;;;;15.96;57.64;101360.84;2232114;79;50712;-72
2022/12/28 01:13:28;;;;;;;;;;;;;;;15.95;57.65;101360.48;2209068;79;52531;-74
2022/12/28 01:16:30;;;;;;;;;;;;;;;15.98;57.59;101371.36;2209360;79;51454;-73
2022/12/28 01:19:32;;;;;;;;;;;;;;;15.97;57.61;101357.67;2232077;79;50102;-73
2022/12/28 01:22:33;;;;;;;;;;;;;;;15.99;57.58;101355.70;2209128;79;50721;-73
2022/12/28 01:25:35;;;;;;;;;;;;;;;15.99;57.59;101359.71;2185907;79;53728;-73
2022/12/28 01:28:36;;;;;;;;;;;;;;;16.00;57.54;101344.86;2209362;79;50810;-73
2022/12/28 01:31:38;;;;;;;;;;;;;;;16.00;57.55;101351.53;2232747;78;51489;-73
2022/12/28 01:34:40;;;;;;;;;;;;;;;16.00;57.58;101335.52;2256420;78;51429;-72
2022/12/28 01:37:41;;;;;;;;;;;;;;;16.03;57.50;101329.05;2233147;78;51185;-74
2022/12/28 01:40:43;;;;;;;;;;;;;;;16.04;57.49;101324.06;2258406;78;50378;-73
2022/12/28 01:43:45;;;;;;;;;;;;;;;16.06;57.41;101325.59;2232165;79;50710;-73
2022/12/28 01:46:48;;;;;;;;;;;;;;;16.09;57.36;101320.45;2231961;79;50454;-73
2022/12/28 01:49:52;;;;;;;;;;;;;;;16.09;57.36;101315.11;2258807;77;49700;-75
2022/12/28 01:52:57;;;;;;;;;;;;;;;16.09;57.32;101307.94;2232390;78;50476;-73
2022/12/28 01:55:58;;;;;;;;;;;;;;;16.09;57.35;101305.77;2232109;79;50825;-73
2022/12/28 01:59:00;;;;;;;;;;;;;;;16.10;57.34;101295.42;2231966;79;51427;-73
2022/12/28 02:02:01;;;;;;;;;;;;;;;16.14;57.26;101294.64;2258839;77;52478;-74
2022/12/28 02:05:03;;;;;;;;;;;;;;;16.13;57.29;101283.60;2259611;78;51495;-73
2022/12/28 02:08:06;;;;;;;;;;;;;;;16.17;57.20;101277.81;2264054;78;51563;-74
2022/12/28 02:11:08;;;;;;;;;;;;;;;16.16;57.22;101271.28;2264381;78;50437;-73
2022/12/28 02:14:09;;;;;;;;;;;;;;;16.19;57.16;101259.82;2264418;78;52562;-73
2022/12/28 02:17:11;;;;;;;;;;;;;;;16.18;57.14;101258.13;2264186;78;50753;-73
2022/12/28 02:20:13;;;;;;;;;;;;;;;16.20;57.13;101252.14;2264284;78;51417;-74
2022/12/28 02:23:22;;;;;;;;;;;;;;;16.21;57.11;101251.17;2264516;78;51420;-73
2022/12/28 02:26:28;;;;;;;;;;;;;;;16.22;57.09;101247.50;2244055;78;51465;-75
2022/12/28 02:29:31;;;;;;;;;;;;;;;16.24;57.06;101246.85;2269037;77;51605;-75
2022/12/28 02:32:34;;;;;;;;;;;;;;;16.24;57.06;101229.50;2269085;78;51506;-74
2022/12/28 02:35:44;;;;;;;;;;;;;;;16.25;57.04;101219.65;2256429;78;51673;-74
2022/12/28 02:38:47;;;;;;;;;;;;;;;16.27;57.01;101211.83;2209260;79;51468;-74
2022/12/28 02:41:48;;;;;;;;;;;;;;;16.25;57.03;101208.47;2232203;79;51556;-74
2022/12/28 02:51:34;;;;;;;;;;;;;;;16.29;56.92;101187.15;2232445;79;22423;-74
2022/12/28 02:57:58;;;;;;;;;;;;;;;16.36;56.78;101175.84;2232485;79;22379;-73
2022/12/28 03:01:17;;;;;;;;;;;;;;;16.36;56.80;101173.16;2232193;79;51600;-73
2022/12/28 03:04:37;;;;;;;;;;;;;;;16.37;56.76;101164.17;2241223;78;51506;-73
2022/12/28 03:11:04;;;;;;;;;;;;;;;16.35;56.80;101135.45;2251258;79;23342;-74
2022/12/28 03:14:06;;;;;;;;;;;;;;;16.35;56.81;101128.77;2250881;79;51546;-73
2022/12/28 03:33:49;;;;;;;;;;;;;;;16.46;56.56;101103.95;2248728;78;24488;-74
2022/12/28 03:37:09;;;;;;;;;;;;;;;16.45;56.60;101102.30;2267300;77;51461;-74
2022/12/28 03:40:24;;;;;;;;;;;;;;;16.49;56.54;101096.12;2269128;77;50735;-73
2022/12/28 03:43:44;;;;;;;;;;;;;;;16.48;56.59;101097.97;2245498;78;52485;-74
2022/12/28 03:46:47;;;;;;;;;;;;;;;16.50;56.59;101087.14;2269195;77;21700;-72
2022/12/28 03:49:49;;;;;;;;;;;;;;;16.50;56.55;101079.12;2269099;77;50306;-72
2022/12/28 03:52:51;;;;;;;;;;;;;;;16.53;56.50;101061.44;2269079;77;50613;-72
2022/12/28 03:55:53;;;;;;;;;;;;;;;16.54;56.46;101062.62;2245714;78;51151;-72
2022/12/28 03:58:55;;;;;;;;;;;;;;;16.54;56.47;101047.06;2270644;77;51510;-73
2022/12/28 04:01:56;;;;;;;;;;;;;;;16.57;56.43;101047.25;2269038;77;50258;-73
2022/12/28 04:04:58;;;;;;;;;;;;;;;16.58;56.42;101047.61;2267476;77;50696;-73
2022/12/28 04:07:59;;;;;;;;;;;;;;;16.56;56.46;101051.76;2237491;78;52525;-72
2022/12/28 04:11:01;;;;;;;;;;;;;;;16.58;56.45;101046.27;2261637;78;50653;-74
2022/12/28 04:14:06;;;;;;;;;;;;;;;16.59;56.43;101038.58;2250871;79;51354;-73
2022/12/28 04:17:07;;;;;;;;;;;;;;;16.61;56.39;101031.25;2250648;79;51476;-73
2022/12/28 04:20:09;;;;;;;;;;;;;;;16.61;56.38;101030.74;2236337;79;52229;-75
2022/12/28 04:23:10;;;;;;;;;;;;;;;16.62;56.33;101023.09;2250994;79;50762;-73
2022/12/28 04:26:12;;;;;;;;;;;;;;;16.63;56.35;101020.73;2261442;78;51519;-73
2022/12/28 04:29:14;;;;;;;;;;;;;;;16.66;56.29;101008.39;2250898;79;50280;-73
2022/12/28 04:32:16;;;;;;;;;;;;;;;16.65;56.30;100998.71;2261545;78;50095;-74
2022/12/28 04:35:17;;;;;;;;;;;;;;;16.64;56.33;100993.02;2256460;78;50649;-73
2022/12/28 04:38:19;;;;;;;;;;;;;;;16.68;56.29;100988.20;2268227;77;51567;-73
2022/12/28 04:41:20;;;;;;;;;;;;;;;16.70;56.25;100987.55;2269091;77;50813;-73
2022/12/28 04:44:22;;;;;;;;;;;;;;;16.71;56.22;100979.34;2245756;78;51366;-74
2022/12/28 04:47:23;;;;;;;;;;;;;;;16.71;56.22;100982.02;2270469;77;51611;-74
2022/12/28 04:50:25;;;;;;;;;;;;;;;16.72;56.23;100977.50;2270637;77;51566;-73
2022/12/28 04:53:27;;;;;;;;;;;;;;;16.74;56.18;100981.69;2269061;78;51559;-73
2022/12/28 04:56:28;;;;;;;;;;;;;;;16.76;56.13;100974.35;2245591;78;52685;-73
2022/12/28 04:59:30;;;;;;;;;;;;;;;16.77;56.14;100977.86;2270735;78;51407;-73
2022/12/28 05:02:31;;;;;;;;;;;;;;;16.77;56.15;100977.86;2269137;78;50292;-73
2022/12/28 05:05:33;;;;;;;;;;;;;;;16.79;56.13;100981.75;2268237;77;50317;-73
2022/12/28 05:08:35;;;;;;;;;;;;;;;16.79;56.15;100973.73;2245248;77;50971;-73
2022/12/28 05:11:37;;;;;;;;;;;;;;;16.83;56.07;100976.42;2269087;77;51622;-73
2022/12/28 05:14:38;;;;;;;;;;;;;;;16.86;55.99;100973.42;2270826;77;50764;-73
2022/12/28 05:17:40;;;;;;;;;;;;;;;16.86;55.99;100958.21;2268832;78;51446;-73
2022/12/28 05:20:41;;;;;;;;;;;;;;;16.87;55.99;100971.07;2245447;78;52437;-73
2022/12/28 05:23:43;;;;;;;;;;;;;;;16.86;55.99;100964.06;2270622;77;51449;-73
2022/12/28 05:26:45;;;;;;;;;;;;;;;16.87;56.00;100967.06;2268922;77;50699;-75
2022/12/28 05:29:46;;;;;;;;;;;;;;;16.88;55.98;100960.23;2269140;78;51374;-74
2022/12/28 05:32:48;;;;;;;;;;;;;;;16.87;56.01;100955.03;2245377;78;52507;-74
2022/12/28 05:35:49;;;;;;;;;;;;;;;16.87;55.98;100949.18;2261615;78;51474;-74
2022/12/28 05:38:51;;;;;;;;;;;;;;;16.86;55.99;100948.86;2268823;78;51481;-73
2022/12/28 05:41:52;;;;;;;;;;;;;;;16.91;55.85;100947.87;2270685;78;51418;-73
2022/12/28 05:44:54;;;;;;;;;;;;;;;16.92;55.78;100957.55;2245531;78;52431;-74
2022/12/28 05:47:59;;;;;;;;;;;;;;;16.96;55.75;100943.37;2245605;78;51111;-74
2022/12/28 05:51:02;;;;;;;;;;;;;;;16.96;55.67;100934.84;2269092;78;50441;-74
2022/12/28 05:54:03;;;;;;;;;;;;;;;16.96;55.66;100926.00;2269070;77;50317;-73
2022/12/28 05:57:05;;;;;;;;;;;;;;;16.99;55.59;100917.64;2245543;78;50053;-73
2022/12/28 06:00:07;;;;;;;;;;;;;;;17.00;55.54;100913.95;2270651;77;50737;-74
2022/12/28 06:03:09;;;;;;;;;;;;;;;17.02;55.49;100910.61;2270700;78;50321;-73
2022/12/28 06:06:17;;;;;;;;;;;;;;;17.03;55.46;100900.75;2267359;77;50167;-74
2022/12/28 06:09:18;;;;;;;;;;;;;;;17.02;55.50;100904.44;2261541;78;50122;-73
2022/12/28 06:12:20;;;;;;;;;;;;;;;17.03;55.48;100894.07;2250804;79;51507;-73
2022/12/28 06:15:21;;;;;;;;;;;;;;;17.05;55.42;100890.23;2261356;78;51471;-73
2022/12/28 06:18:23;;;;;;;;;;;;;;;17.07;55.40;100894.08;2261155;78;53704;-73
2022/12/28 06:21:26;;;;;;;;;;;;;;;17.06;55.41;100881.22;2261331;78;50937;-73
2022/12/28 06:24:27;;;;;;;;;;;;;;;17.08;55.31;100883.70;2261517;78;50241;-74
2022/12/28 06:27:29;;;;;;;;;;;;;;;17.08;55.35;100884.54;2250674;79;50438;-73
2022/12/28 06:30:30;;;;;;;;;;;;;;;17.12;55.25;100873.86;2250897;79;50677;-72
2022/12/28 06:33:32;;;;;;;;;;;;;;;17.12;55.22;100869.84;2263227;78;50966;-73
2022/12/28 06:36:35;;;;;;;;;;;;;;;17.14;55.18;100867.02;2242495;78;50361;-73
2022/12/28 06:39:37;;;;;;;;;;;;;;;17.14;55.17;100861.16;2264213;78;50460;-74
2022/12/28 06:42:39;;;;;;;;;;;;;;;17.15;55.15;100858.81;2265920;78;50402;-74
2022/12/28 06:45:40;;;;;;;;;;;;;;;17.16;55.14;100852.48;2265937;78;51128;-73
2022/12/28 06:48:42;;;;;;;;;;;;;;;17.17;55.09;100862.16;2264012;78;50686;-73
2022/12/28 06:51:43;;;;;;;;;;;;;;;17.21;55.02;100849.27;2264244;78;51466;-74
2022/12/28 06:54:45;;;;;;;;;;;;;;;17.24;54.96;100858.80;2265880;78;53455;-73
2022/12/28 06:57:46;;;;;;;;;;;;;;;17.28;54.86;100848.11;2240816;78;52585;-74
2022/12/28 07:00:48;;;;;;;;;;;;;;;17.27;54.89;100845.11;2266041;78;51440;-74
2022/12/28 07:03:50;;;;;;;;;;;;;;;17.30;54.80;100835.41;2265200;78;52316;-76
2022/12/28 07:06:52;;;;;;;;;;;;;;;17.32;54.75;100830.73;2265496;78;50675;-77
2022/12/28 07:09:53;;;;;;;;;;;;;;;17.32;54.77;100834.74;2241072;78;52791;-76
2022/12/28 07:12:55;;;;;;;;;;;;;;;17.33;54.84;100822.52;2266091;78;51432;-77
2022/12/28 07:15:57;;;;;;;;;;;;;;;17.33;54.93;100818.50;2264364;78;51545;-76
2022/12/28 07:18:58;;;;;;;;;;;;;;;17.37;54.88;100815.00;2264148;78;51509;-77
2022/12/28 07:22:00;;;;;;;;;;;;;;;17.38;54.84;100807.30;2266073;78;52361;-77
2022/12/28 07:25:01;;;;;;;;;;;;;;;17.41;54.77;100802.94;2256194;78;51481;-76
2022/12/28 07:28:03;;;;;;;;;;;;;;;17.47;55.06;100804.95;2258246;77;53864;-75
2022/12/28 07:31:06;;;;;;;;;;;;;;;17.52;55.81;100806.60;2232082;79;51494;-76
2022/12/28 07:34:08;;;;;;;;;;;;;;;17.59;55.86;100795.52;2219500;78;49562;-76
2022/12/28 07:37:10;;;;;;;;;;;;;;;17.65;56.12;100798.03;2266380;77;50630;-75
2022/12/28 07:40:11;;;;;;;;;;;;;;;17.67;56.26;100793.83;2265896;78;50628;-74
2022/12/28 07:43:13;;;;;;;;;;;;;;;17.71;56.28;100783.12;2264351;78;50227;-75
2022/12/28 07:46:16;;;;;;;;;;;;;;;17.76;56.29;100788.78;2265684;78;50081;-75
2022/12/28 07:49:17;;;;;;;;;;;;;;;17.80;56.39;100771.38;2266547;77;51577;-75
2022/12/28 07:52:19;;;;;;;;;;;;;;;17.85;56.40;100769.02;2244557;77;50626;-75
2022/12/28 07:55:20;;;;;;;;;;;;;;;17.89;56.41;100760.97;2290667;77;50134;-75
2022/12/28 07:58:22;;;;;;;;;;;;;;;17.90;56.45;100760.46;2282960;77;51212;-75
2022/12/28 08:01:24;;;;;;;;;;;;;;;17.99;56.33;100772.30;2307556;77;50710;-75
2022/12/28 08:04:26;;;;;;;;;;;;;;;17.97;56.54;100762.27;2283021;77;50421;-76
2022/12/28 08:07:27;;;;;;;;;;;;;;;17.98;56.51;100755.92;2236163;78;50393;-75
2022/12/28 08:10:29;;;;;;;;;;;;;;;18.00;56.67;100762.41;2247401;78;50036;-77
2022/12/28 08:13:31;;;;;;;;;;;;;;;18.04;56.61;100759.72;2256488;77;50629;-75
2022/12/28 08:16:34;;;;;;;;;;;;;;;18.05;56.58;100755.52;2262181;78;50348;-75
2022/12/28 08:19:35;;;;;;;;;;;;;;;18.09;56.57;100756.52;2264377;78;51561;-75
2022/12/28 08:22:37;;;;;;;;;;;;;;;18.11;56.48;100754.48;2268389;77;51087;-75
2022/12/28 08:25:39;;;;;;;;;;;;;;;18.12;56.36;100743.60;2270551;77;51462;-76
2022/12/28 08:28:40;;;;;;;;;;;;;;;18.15;56.28;100745.09;2268762;78;51532;-76
2022/12/28 08:31:42;;;;;;;;;;;;;;;18.16;56.21;100740.05;2268972;78;51561;-75
2022/12/28 08:34:44;;;;;;;;;;;;;;;18.17;56.11;100737.20;2245606;78;51275;-77
2022/12/28 08:37:45;;;;;;;;;;;;;;;18.18;56.12;100723.30;2268894;78;50711;-76
2022/12/28 08:40:49;;;;;;;;;;;;;;;18.22;56.18;100724.63;2268998;77;51547;-75
2022/12/28 08:43:51;;;;;;;;;;;;;;;18.22;56.18;100724.11;2268942;78;51484;-76
2022/12/28 08:46:54;;;;;;;;;;;;;;;18.22;56.14;100716.08;2245302;77;49583;-74
2022/12/28 08:49:55;;;;;;;;;;;;;;;18.29;56.02;100714.87;2269435;77;50725;-74
2022/12/28 08:52:57;;;;;;;;;;;;;;;18.26;56.08;100709.36;2266379;78;51435;-75
2022/12/28 08:56:03;;;;;;;;;;;;;;;18.27;56.12;100708.34;2264616;78;50407;-74
2022/12/28 08:59:04;;;;;;;;;;;;;;;18.29;56.09;100714.87;2261699;78;52561;-74
2022/12/28 09:02:06;;;;;;;;;;;;;;;18.35;55.87;100711.46;2269018;78;50522;-73
2022/12/28 09:05:08;;;;;;;;;;;;;;;18.38;55.69;100700.89;2268978;77;50724;-74
2022/12/28 09:08:10;;;;;;;;;;;;;;;18.43;55.49;100700.67;2256737;76;50696;-74
2022/12/28 09:11:12;;;;;;;;;;;;;;;18.44;55.54;100706.34;2219546;78;51735;-74
2022/12/28 09:14:13;;;;;;;;;;;;;;;18.48;55.50;100699.62;2233407;78;50383;-74
2022/12/28 09:17:15;;;;;;;;;;;;;;;18.52;55.46;100693.89;2232050;79;50672;-74
2022/12/28 09:20:17;;;;;;;;;;;;;;;18.56;55.32;100696.55;2233647;78;51419;-75
2022/12/28 09:23:18;;;;;;;;;;;;;;;18.58;55.45;100697.20;2213220;78;50145;-75
2022/12/28 09:26:21;;;;;;;;;;;;;;;18.63;55.37;100686.78;2245338;77;52349;-74
2022/12/28 09:29:23;;;;;;;;;;;;;;;18.66;55.38;100676.51;2268438;77;51435;-73
2022/12/28 09:32:25;;;;;;;;;;;;;;;18.65;55.53;100674.00;2270705;77;51530;-74
2022/12/28 09:35:26;;;;;;;;;;;;;;;18.67;55.37;100671.98;2245606;78;51628;-74
2022/12/28 09:38:28;;;;;;;;;;;;;;;18.68;55.29;100666.95;2268818;78;51431;-74
2022/12/28 09:41:30;;;;;;;;;;;;;;;18.69;55.19;100669.95;2270610;77;51461;-75
2022/12/28 09:44:43;;;;;;;;;;;;;;;18.69;55.09;100659.23;2269056;77;51651;-74
2022/12/28 09:47:48;;;;;;;;;;;;;;;18.69;54.98;100656.55;2245232;77;51825;-75
2022/12/28 09:50:50;;;;;;;;;;;;;;;18.71;54.90;100651.84;2267598;77;50346;-74
2022/12/28 09:53:51;;;;;;;;;;;;;;;18.71;54.88;100651.84;2263607;77;50251;-74
2022/12/28 09:56:53;;;;;;;;;;;;;;;18.75;54.77;100642.44;2268841;78;50648;-75
2022/12/28 09:59:55;;;;;;;;;;;;;;;18.80;54.62;100634.67;2217082;78;49512;-74
2022/12/28 10:02:58;;;;;;;;;;;;;;;18.80;54.79;100640.03;2232143;79;50598;-75
2022/12/28 10:05:59;;;;;;;;;;;;;;;18.81;54.87;100639.03;2236012;77;50682;-74
2022/12/28 10:09:01;;;;;;;;;;;;;;;18.80;55.00;100624.46;2283559;77;50499;-74
2022/12/28 10:12:04;;;;;;;;;;;;;;;18.81;55.07;100623.47;2245678;78;51288;-74
2022/12/28 10:15:06;;;;;;;;;;;;;;;18.81;54.95;100620.27;2265034;77;51820;-74
2022/12/28 10:18:08;;;;;;;;;;;;;;;18.88;54.88;100627.05;2265319;77;51525;-74
2022/12/28 10:21:09;;;;;;;;;;;;;;;18.87;54.88;100620.86;2266145;77;50772;-74
2022/12/28 10:24:11;;;;;;;;;;;;;;;18.90;54.87;100608.41;2250109;78;51184;-74
2022/12/28 10:27:14;;;;;;;;;;;;;;;18.91;54.95;100606.08;2255878;77;50431;-73
2022/12/28 10:30:17;;;;;;;;;;;;;;;18.91;55.01;100607.41;2238579;78;50333;-74
2022/12/28 10:33:18;;;;;;;;;;;;;;;18.91;55.17;100607.41;2247465;77;50788;-73
2022/12/28 10:36:20;;;;;;;;;;;;;;;18.90;54.94;100610.27;2233067;78;51203;-72
2022/12/28 10:39:23;;;;;;;;;;;;;;;18.93;54.94;100606.73;2263656;78;50607;-73
2022/12/28 10:42:35;;;;;;;;;;;;;;;18.96;54.88;100592.60;2258201;78;51511;-72
2022/12/28 10:45:41;;;;;;;;;;;;;;;19.03;54.72;100590.84;2267018;78;50320;-72
2022/12/28 10:48:43;;;;;;;;;;;;;;;19.00;54.89;100588.54;2264533;77;49267;-72
2022/12/28 10:51:47;;;;;;;;;;;;;;;19.01;54.95;100589.70;2261239;77;51677;-73
2022/12/28 10:54:48;;;;;;;;;;;;;;;19.01;54.95;100576.78;2264718;78;51500;-74
2022/12/28 10:57:50;;;;;;;;;;;;;;;19.03;54.94;100577.43;2266456;78;51483;-75
2022/12/28 11:00:53;;;;;;;;;;;;;;;19.05;54.94;100574.06;2267118;78;50317;-73
2022/12/28 11:03:56;;;;;;;;;;;;;;;19.09;54.86;100576.70;2266686;78;51586;-73
2022/12/28 11:07:03;;;;;;;;;;;;;;;19.05;54.85;100566.02;2267074;78;50450;-72
2022/12/28 11:10:15;;;;;;;;;;;;;;;19.04;54.85;100565.70;2266922;78;22942;-73
2022/12/28 11:13:18;;;;;;;;;;;;;;;19.08;54.75;100566.97;2244121;78;50071;-73
2022/12/28 11:16:20;;;;;;;;;;;;;;;19.08;54.71;100561.61;2267230;78;50801;-73
2022/12/28 11:19:22;;;;;;;;;;;;;;;19.08;54.73;100565.63;2266950;78;50063;-72
2022/12/28 11:22:24;;;;;;;;;;;;;;;19.06;54.82;100559.62;2255112;78;50266;-73
2022/12/28 11:25:30;;;;;;;;;;;;;;;19.04;54.18;100554.98;2245432;78;49948;-72
2022/12/28 11:28:31;;;;;;;;;;;;;;;19.07;54.42;100553.26;2266977;78;49971;-73
2022/12/28 11:31:34;;;;;;;;;;;;;;;19.07;54.56;100547.89;2267007;77;50384;-74
2022/12/28 11:34:35;;;;;;;;;;;;;;;19.09;54.67;100537.81;2257295;77;51582;-72
2022/12/28 11:37:37;;;;;;;;;;;;;;;19.12;54.63;100544.13;2261197;78;51574;-72
2022/12/28 11:40:46;;;;;;;;;;;;;;;19.12;54.64;100540.94;2239571;78;50382;-72
2022/12/28 11:43:49;;;;;;;;;;;;;;;19.13;54.66;100537.22;2232263;79;50649;-73
2022/12/28 11:47:07;;;;;;;;;;;;;;;19.12;54.69;100537.43;2232187;78;50407;-72
2022/12/28 11:50:27;;;;;;;;;;;;;;;19.11;54.68;100535.27;2214698;78;50096;-72
2022/12/28 11:53:33;;;;;;;;;;;;;;;19.12;54.71;100528.05;2264277;78;51474;-73
2022/12/28 11:56:46;;;;;;;;;;;;;;;19.10;54.80;100519.34;2264402;78;50300;-72
2022/12/28 11:59:47;;;;;;;;;;;;;;;19.11;54.83;100516.97;2264592;78;50786;-72
2022/12/28 12:02:50;;;;;;;;;;;;;;;19.13;54.81;100514.42;2241319;78;50922;-72
2022/12/28 12:05:52;;;;;;;;;;;;;;;19.13;54.84;100506.89;2264625;78;50436;-73
2022/12/28 12:08:53;;;;;;;;;;;;;;;19.15;54.81;100511.56;2264096;78;51499;-74
2022/12/28 12:11:55;;;;;;;;;;;;;;;19.15;54.77;100505.69;2266132;78;51178;-73
2022/12/28 12:14:57;;;;;;;;;;;;;;;19.17;54.71;100506.84;2265922;78;52603;-72
2022/12/28 12:18:00;;;;;;;;;;;;;;;19.17;54.72;100506.84;2264087;78;50356;-72
2022/12/28 12:21:02;;;;;;;;;;;;;;;19.16;54.59;100505.17;2264211;78;51480;-73
2022/12/28 12:24:05;;;;;;;;;;;;;;;19.21;54.51;100497.38;2267642;78;51626;-72
2022/12/28 12:27:11;;;;;;;;;;;;;;;19.15;54.62;100496.30;2236819;78;49790;-73
2022/12/28 12:30:14;;;;;;;;;;;;;;;19.25;54.75;100489.28;2208097;79;50209;-71
2022/12/28 12:33:17;;;;;;;;;;;;;;;19.26;54.67;100483.41;2231987;78;50392;-71
2022/12/28 12:36:36;;;;;;;;;;;;;;;19.28;54.59;100478.16;2231664;78;50225;-72
2022/12/28 12:39:42;;;;;;;;;;;;;;;19.25;54.73;100474.53;2231943;79;50423;-73
2022/12/28 12:43:02;;;;;;;;;;;;;;;19.29;54.64;100479.84;2209204;79;52573;-73
2022/12/28 12:46:21;;;;;;;;;;;;;;;19.28;54.63;100475.48;2218896;78;52318;-72
2022/12/28 12:49:24;;;;;;;;;;;;;;;19.27;54.65;100475.17;2212020;80;50144;-72
2022/12/28 12:52:36;;;;;;;;;;;;;;;19.29;54.47;100477.64;2264470;77;50283;-73
2022/12/28 12:55:45;;;;;;;;;;;;;;;19.26;54.42;100478.86;2240710;78;50976;-72
2022/12/28 12:59:05;;;;;;;;;;;;;;;19.28;54.27;100471.45;2228975;78;49950;-72
2022/12/28 13:02:25;;;;;;;;;;;;;;;19.29;54.19;100469.11;2264174;78;50728;-72
2022/12/28 13:05:27;;;;;;;;;;;;;;;19.30;54.16;100479.33;2264143;78;50301;-70
2022/12/28 13:08:36;;;;;;;;;;;;;;;19.32;54.08;100470.58;2265747;78;51109;-73
2022/12/28 13:11:38;;;;;;;;;;;;;;;19.32;54.09;100466.04;2264229;78;50219;-75
2022/12/28 13:14:39;;;;;;;;;;;;;;;19.36;54.08;100465.13;2264246;78;50222;-75
2022/12/28 13:17:43;;;;;;;;;;;;;;;19.36;54.13;100465.95;2265863;78;50359;-74
2022/12/28 13:21:00;;;;;;;;;;;;;;;19.41;54.13;100466.72;2236672;79;51887;-73
2022/12/28 13:24:02;;;;;;;;;;;;;;;19.51;53.92;100452.98;2256768;77;51417;-75
2022/12/28 13:27:05;;;;;;;;;;;;;;;19.54;54.03;100453.41;2209080;79;50238;-75
2022/12/28 13:30:08;;;;;;;;;;;;;;;19.59;53.98;100456.87;2230933;78;50299;-80
2022/12/28 13:33:11;;;;;;;;;;;;;;;19.63;53.92;100466.20;2209290;79;51726;-78
2022/12/28 13:36:15;;;;;;;;;;;;;;;19.64;53.85;100453.61;2231359;79;50683;-78
2022/12/28 13:39:17;;;;;;;;;;;;;;;19.66;53.86;100452.38;2231998;78;50818;-79
2022/12/28 13:42:23;;;;;;;;;;;;;;;19.64;53.93;100450.40;2232737;79;50270;-78
2022/12/28 13:45:25;;;;;;;;;;;;;;;19.60;54.04;100454.52;2208697;79;51904;-74
2022/12/28 13:48:27;;;;;;;;;;;;;;;19.57;54.23;100458.42;2231833;78;51520;-75
2022/12/28 13:51:28;;;;;;;;;;;;;;;19.63;54.17;100462.69;2248104;78;50726;-77
2022/12/28 13:54:30;;;;;;;;;;;;;;;19.64;54.03;100469.70;2264660;78;51462;-77
2022/12/28 13:57:31;;;;;;;;;;;;;;;19.68;53.93;100475.02;2266212;78;50945;-77
2022/12/28 14:00:37;;;;;;;;;;;;;;;19.63;54.00;100462.69;2268327;78;51638;-79
2022/12/28 14:03:42;;;;;;;;;;;;;;;19.49;54.24;100462.56;2263266;78;22156;-78
2022/12/28 14:06:47;;;;;;;;;;;;;;;19.40;54.39;100459.71;2265880;78;22293;-78
2022/12/28 14:10:00;;;;;;;;;;;;;;;19.31;54.52;100454.14;2263737;78;22392;-78
2022/12/28 14:13:08;;;;;;;;;;;;;;;19.19;54.73;100459.70;2267318;78;22280;-78
2022/12/28 14:16:14;;;;;;;;;;;;;;;19.03;55.03;100452.22;2263240;78;21823;-78
2022/12/28 14:22:44;;;;;;;;;;;;;;;18.95;55.19;100467.61;2269246;77;21746;-78
2022/12/28 14:25:48;;;;;;;;;;;;;;;18.97;55.13;100461.55;2272063;77;22017;-78
2022/12/28 14:28:53;;;;;;;;;;;;;;;18.92;55.21;100460.27;2271619;77;22284;-78
2022/12/28 14:32:05;;;;;;;;;;;;;;;18.91;55.18;100464.49;2271761;77;22548;-77
2022/12/28 14:35:10;;;;;;;;;;;;;;;18.88;55.24;100463.02;2271465;77;21733;-77
2022/12/28 14:38:20;;;;;;;;;;;;;;;18.88;55.21;100464.36;2271452;78;49946;-77
2022/12/28 14:41:25;;;;;;;;;;;;;;;18.83;55.31;100456.05;2271644;77;21802;-77
2022/12/28 14:44:34;;;;;;;;;;;;;;;18.77;55.44;100466.17;2247641;78;50680;-78
2022/12/28 14:47:38;;;;;;;;;;;;;;;18.79;55.44;100461.98;2248014;78;49942;-77
2022/12/28 14:50:44;;;;;;;;;;;;;;;18.75;55.47;100462.84;2265929;77;50773;-77
2022/12/28 14:53:47;;;;;;;;;;;;;;;18.77;55.44;100463.49;2256158;78;22983;-77
2022/12/28 14:56:58;;;;;;;;;;;;;;;18.79;55.38;100464.66;2266793;78;22535;-79
2022/12/28 15:00:06;;;;;;;;;;;;;;;18.76;55.45;100463.19;2242890;78;51781;-77
2022/12/28 15:03:19;;;;;;;;;;;;;;;18.78;55.37;100461.16;2267289;78;51541;-77
2022/12/28 15:06:26;;;;;;;;;;;;;;;18.80;55.30;100468.98;2267184;78;51463;-78
2022/12/28 15:09:41;;;;;;;;;;;;;;;18.81;55.32;100472.83;2267913;78;21726;-77
2022/12/28 15:12:45;;;;;;;;;;;;;;;18.82;55.27;100469.12;2242740;78;50574;-78
2022/12/28 15:15:56;;;;;;;;;;;;;;;18.88;55.12;100460.34;2268430;78;22111;-78
2022/12/28 15:18:58;;;;;;;;;;;;;;;18.92;55.02;100459.44;2267949;78;50777;-77
2022/12/28 15:21:59;;;;;;;;;;;;;;;18.96;54.93;100469.26;2269326;78;50728;-78
2022/12/28 15:25:01;;;;;;;;;;;;;;;19.00;54.79;100467.87;2249671;77;51674;-77
2022/12/28 15:28:03;;;;;;;;;;;;;;;18.98;54.83;100466.71;2272418;78;50692;-77
2022/12/28 15:31:08;;;;;;;;;;;;;;;19.00;54.78;100467.36;2274269;76;51591;-78
2022/12/28 15:34:09;;;;;;;;;;;;;;;19.03;54.72;100468.31;2272408;78;51675;-77
2022/12/28 15:37:11;;;;;;;;;;;;;;;19.11;54.52;100472.23;2249003;77;50037;-77
2022/12/28 15:40:13;;;;;;;;;;;;;;;19.13;54.46;100474.20;2272449;77;49739;-78
2022/12/28 15:43:14;;;;;;;;;;;;;;;19.18;54.31;100468.27;2273606;77;50719;-79
2022/12/28 15:46:16;;;;;;;;;;;;;;;19.22;54.26;100462.02;2265066;77;50722;-77
2022/12/28 15:49:17;;;;;;;;;;;;;;;19.23;54.40;100460.47;2221461;79;50061;-77
2022/12/28 15:52:19;;;;;;;;;;;;;;;19.28;54.29;100471.45;2244624;77;51415;-76
2022/12/28 15:55:20;;;;;;;;;;;;;;;19.30;54.62;100468.59;2268816;78;51445;-78
2022/12/28 15:58:22;;;;;;;;;;;;;;;19.35;54.69;100460.28;2266725;78;50730;-77
2022/12/28 16:01:24;;;;;;;;;;;;;;;19.39;54.79;100459.38;2241479;78;50064;-77
2022/12/28 16:04:26;;;;;;;;;;;;;;;19.44;54.89;100464.17;2266255;78;52578;-77
2022/12/28 16:07:28;;;;;;;;;;;;;;;19.45;54.65;100453.77;2256841;78;50759;-77
2022/12/28 16:10:29;;;;;;;;;;;;;;;19.48;54.57;100442.64;2232339;79;51394;-77
2022/12/28 16:13:32;;;;;;;;;;;;;;;19.49;54.59;100440.27;2210024;79;52368;-77